Time;durP1;ratioP1;P1;durP2;ratioP2;P2;SDS_P1;SDS_P2;PMS_P1;PMS_P2;Temp;Humidity;BMP_temperature;BMP_pressure;BME280_temperature;BME280_humidity;BME280_pressure;Samples;Min_cycle;Max_cycle;Signal;HPM_P1;HPM_P2
2021/11/08 00:00:29;;;;;;;7.10;1.70;;;;;;;7.04;99.44;101126.50;5046464;28;20025;-73
2021/11/08 00:02:59;;;;;;;10.60;2.30;;;;;;;7.03;99.32;101121.41;5045144;28;20052;-73
2021/11/08 00:05:25;;;;;;;11.10;2.30;;;;;;;7.06;98.90;101134.28;5043347;28;20087;-72
2021/11/08 00:07:54;;;;;;;7.00;2.05;;;;;;;7.09;99.01;101136.53;5046760;28;20066;-73
2021/11/08 00:10:28;;;;;;;8.00;1.73;;;;;;;7.10;99.24;101143.47;5045791;28;20403;-73
2021/11/08 00:12:53;;;;;;;8.10;2.20;;;;;;;7.12;98.55;101152.88;5046710;28;20039;-72
2021/11/08 00:15:21;;;;;;;12.82;2.03;;;;;;;7.22;98.61;101139.91;5048074;28;20025;-73
2021/11/08 00:17:59;;;;;;;11.55;2.10;;;;;;;7.26;98.56;101151.78;5043470;28;20028;-73
2021/11/08 00:20:33;;;;;;;8.18;2.42;;;;;;;7.18;98.83;101149.38;5049146;28;20119;-73
2021/11/08 00:23:00;;;;;;;10.73;2.70;;;;;;;7.27;99.02;101163.25;5055205;28;20029;-73
2021/11/08 00:25:26;;;;;;;10.45;1.90;;;;;;;7.29;98.74;101155.84;5045932;28;20482;-73
2021/11/08 00:27:52;;;;;;;9.57;1.85;;;;;;;7.40;98.41;101165.81;5046824;28;20095;-73
2021/11/08 00:30:17;;;;;;;11.20;2.25;;;;;;;7.42;98.22;101152.28;5047347;28;20029;-73
2021/11/08 00:32:42;;;;;;;9.10;1.80;;;;;;;7.41;97.85;101156.78;5048453;28;20294;-73
2021/11/08 00:35:08;;;;;;;8.95;1.60;;;;;;;7.33;98.20;101153.56;5051448;28;20078;-73
2021/11/08 00:37:34;;;;;;;11.23;1.92;;;;;;;7.32;98.40;101154.59;5042104;28;20024;-73
2021/11/08 00:40:00;;;;;;;10.00;2.33;;;;;;;7.38;98.32;101164.41;5043816;28;20049;-73
2021/11/08 00:42:29;;;;;;;9.73;2.60;;;;;;;7.42;98.27;101166.41;5046484;28;20063;-73
2021/11/08 00:44:56;;;;;;;6.13;2.00;;;;;;;7.29;98.27;101166.50;5044182;28;20075;-73
2021/11/08 00:47:21;;;;;;;15.77;3.38;;;;;;;7.31;99.17;101171.63;5046957;28;20029;-73
2021/11/08 00:49:48;;;;;;;10.15;2.40;;;;;;;7.27;98.65;101195.22;5044122;28;20036;-73
2021/11/08 00:52:14;;;;;;;6.32;2.10;;;;;;;7.31;98.62;101175.09;5055092;28;20594;-73
2021/11/08 00:54:40;;;;;;;11.45;2.05;;;;;;;7.38;99.44;101181.22;5049986;28;20102;-73
2021/11/08 00:57:09;;;;;;;11.00;2.10;;;;;;;7.37;99.17;101187.59;5051954;28;20051;-73
2021/11/08 00:59:36;;;;;;;8.13;1.67;;;;;;;7.36;99.10;101177.97;5046535;28;20180;-73
2021/11/08 01:02:02;;;;;;;15.73;2.58;;;;;;;7.44;98.71;101191.00;5048444;28;20021;-73
2021/11/08 01:04:28;;;;;;;8.38;2.15;;;;;;;7.41;98.94;101194.13;5043978;28;20070;-73
2021/11/08 01:06:59;;;;;;;8.95;1.77;;;;;;;7.48;99.13;101186.06;5060241;28;20518;-73
2021/11/08 01:09:27;;;;;;;8.68;2.03;;;;;;;7.49;98.68;101198.34;5044398;28;20025;-73
2021/11/08 01:11:52;;;;;;;11.95;1.80;;;;;;;7.45;98.94;101194.50;5045123;28;20037;-73
2021/11/08 01:14:18;;;;;;;7.88;2.08;;;;;;;7.30;99.70;101200.13;5040868;28;20032;-73
2021/11/08 01:16:45;;;;;;;8.70;1.88;;;;;;;7.38;100.00;101196.41;5043890;28;20115;-73
2021/11/08 01:19:12;;;;;;;8.75;2.05;;;;;;;7.32;100.00;101199.91;5046899;28;20475;-73
2021/11/08 01:21:37;;;;;;;10.10;2.22;;;;;;;7.23;100.00;101204.69;5044434;28;20064;-73
2021/11/08 01:24:05;;;;;;;8.88;1.90;;;;;;;7.20;100.00;101211.28;5045024;28;20057;-73
2021/11/08 01:26:32;;;;;;;9.55;1.67;;;;;;;7.28;100.00;101204.84;5045629;28;20025;-73
2021/11/08 01:28:57;;;;;;;8.15;1.95;;;;;;;7.28;100.00;101215.53;5044856;28;20028;-72
2021/11/08 01:31:23;;;;;;;8.20;1.77;;;;;;;7.28;100.00;101226.19;5051350;28;20029;-73
2021/11/08 01:33:51;;;;;;;9.50;2.17;;;;;;;7.28;100.00;101216.34;5040858;28;20036;-73
2021/11/08 01:36:27;;;;;;;9.90;1.85;;;;;;;7.35;100.00;101210.94;5046509;28;20414;-73
2021/11/08 01:39:01;;;;;;;11.05;1.88;;;;;;;7.39;100.00;101222.03;5044873;28;20037;-73
2021/11/08 01:41:28;;;;;;;11.18;2.00;;;;;;;7.47;100.00;101227.91;5059653;28;20043;-73
2021/11/08 01:43:53;;;;;;;6.05;1.80;;;;;;;7.49;100.00;101225.00;5045998;28;20040;-73
2021/11/08 01:46:21;;;;;;;5.05;1.27;;;;;;;7.42;100.00;101250.91;5046415;28;20403;-72
2021/11/08 01:48:47;;;;;;;3.97;1.55;;;;;;;7.44;100.00;101228.34;5042750;28;20024;-73
2021/11/08 01:51:14;;;;;;;11.98;1.98;;;;;;;7.50;100.00;101232.78;5056006;28;20025;-73
2021/11/08 01:53:40;;;;;;;7.72;1.83;;;;;;;7.52;100.00;101227.25;5049495;28;20029;-72
2021/11/08 01:56:07;;;;;;;8.18;1.50;;;;;;;7.55;100.00;101227.66;5046182;28;20495;-73
2021/11/08 01:58:34;;;;;;;8.73;2.00;;;;;;;7.55;100.00;101233.00;5043093;28;20025;-73
2021/11/08 02:01:01;;;;;;;8.75;1.60;;;;;;;7.58;99.79;101231.72;5045126;28;20104;-73
2021/11/08 02:03:28;;;;;;;6.25;1.55;;;;;;;7.67;99.55;101240.28;5042570;28;20501;-73
2021/11/08 02:05:54;;;;;;;10.50;2.10;;;;;;;7.68;99.97;101240.06;5042796;28;20033;-73
2021/11/08 02:08:21;;;;;;;5.20;1.85;;;;;;;7.61;100.00;101238.47;5043049;28;20040;-73
2021/11/08 02:10:48;;;;;;;9.57;1.70;;;;;;;7.64;100.00;101244.19;5040658;28;20094;-73
2021/11/08 02:13:15;;;;;;;6.90;1.60;;;;;;;7.62;100.00;101245.44;5043448;28;20025;-73
2021/11/08 02:15:41;;;;;;;6.35;1.85;;;;;;;7.56;100.00;101250.63;5045275;28;20021;-73
2021/11/08 02:18:08;;;;;;;4.22;1.48;;;;;;;7.45;100.00;101255.81;5043778;28;20167;-72
2021/11/08 02:20:35;;;;;;;5.47;1.88;;;;;;;7.56;100.00;101255.13;5045499;28;20638;-73
2021/11/08 02:23:05;;;;;;;8.88;1.80;;;;;;;7.49;100.00;101260.50;5042031;28;20059;-73
2021/11/08 02:25:33;;;;;;;5.55;1.42;;;;;;;7.56;100.00;101263.94;5044392;28;20028;-73
2021/11/08 02:28:00;;;;;;;11.57;1.90;;;;;;;7.60;100.00;101261.66;5048084;28;20058;-73
2021/11/08 02:30:29;;;;;;;13.77;1.67;;;;;;;7.59;100.00;101260.03;5049647;28;20032;-73
2021/11/08 02:32:56;;;;;;;8.70;1.23;;;;;;;7.50;99.93;101274.63;5047600;28;20029;-73
2021/11/08 02:35:22;;;;;;;5.68;1.48;;;;;;;7.54;100.00;101281.16;5043508;28;20070;-73
2021/11/08 02:37:50;;;;;;;5.32;1.20;;;;;;;7.52;100.00;101273.38;5047592;28;20715;-73
2021/11/08 02:40:21;;;;;;;5.57;1.50;;;;;;;7.51;100.00;101282.41;5047252;28;20021;-73
2021/11/08 02:42:49;;;;;;;5.03;1.20;;;;;;;7.58;100.00;101275.22;5047513;28;20029;-73
2021/11/08 02:45:21;;;;;;;5.97;1.30;;;;;;;7.57;100.00;101281.59;5048524;28;20078;-73
2021/11/08 02:47:49;;;;;;;2.95;1.45;;;;;;;7.55;100.00;101286.31;5049873;28;20025;-72
2021/11/08 02:50:16;;;;;;;4.43;1.30;;;;;;;7.54;100.00;101282.03;5049512;28;20028;-73
2021/11/08 02:52:43;;;;;;;4.13;1.30;;;;;;;7.61;100.00;101283.81;5065770;28;20024;-73
2021/11/08 02:55:09;;;;;;;4.43;0.90;;;;;;;7.58;100.00;101291.22;5048835;28;20021;-73
2021/11/08 02:57:36;;;;;;;5.28;1.55;;;;;;;7.53;100.00;101288.34;5046211;28;20155;-72
2021/11/08 03:00:09;;;;;;;6.55;1.15;;;;;;;7.57;100.00;101291.44;5051338;28;20510;-73
2021/11/08 03:02:37;;;;;;;4.32;1.08;;;;;;;7.61;100.00;101291.81;5044783;28;20036;-72
2021/11/08 03:05:04;;;;;;;2.92;1.05;;;;;;;7.67;100.00;101290.94;5047105;28;20028;-73
2021/11/08 03:07:32;;;;;;;3.97;0.85;;;;;;;7.65;100.00;101301.00;5040701;28;20037;-72
2021/11/08 03:10:02;;;;;;;6.38;1.17;;;;;;;7.68;100.00;101295.25;5037651;28;20059;-72
2021/11/08 03:12:30;;;;;;;3.00;0.68;;;;;;;7.71;100.00;101302.81;5048512;28;20684;-72
2021/11/08 03:15:04;;;;;;;2.95;0.70;;;;;;;7.72;100.00;101307.09;5048952;28;20063;-73
2021/11/08 03:17:37;;;;;;;2.70;0.95;;;;;;;7.74;100.00;101313.91;5049748;28;20082;-73
2021/11/08 03:20:06;;;;;;;3.88;1.08;;;;;;;7.75;100.00;101318.19;5047438;28;20426;-73
2021/11/08 03:22:33;;;;;;;1.65;0.77;;;;;;;7.79;100.00;101322.06;5049768;28;20029;-73
2021/11/08 03:25:14;;;;;;;1.20;0.57;;;;;;;7.76;100.00;101329.69;5048684;28;20082;-73
2021/11/08 03:27:50;;;;;;;1.10;0.70;;;;;;;7.74;100.00;101327.22;5049250;28;20104;-74
2021/11/08 03:30:21;;;;;;;1.45;0.55;;;;;;;7.75;100.00;101320.88;5060113;28;20036;-73
2021/11/08 03:32:49;;;;;;;2.35;0.98;;;;;;;7.69;100.00;101318.22;5049007;28;20030;-73
2021/11/08 03:35:19;;;;;;;1.85;0.63;;;;;;;7.77;100.00;101328.66;5043606;28;20021;-72
2021/11/08 03:37:46;;;;;;;2.35;0.68;;;;;;;7.66;100.00;101331.97;5043023;28;20024;-73
2021/11/08 03:40:20;;;;;;;2.38;0.80;;;;;;;7.63;100.00;101332.41;5028472;28;20121;-73
2021/11/08 03:42:47;;;;;;;4.40;1.08;;;;;;;7.59;100.00;101329.38;5048219;28;20029;-73
2021/11/08 03:45:14;;;;;;;1.63;0.73;;;;;;;7.58;100.00;101338.41;5043057;28;20442;-73
2021/11/08 03:47:41;;;;;;;2.38;1.00;;;;;;;7.51;100.00;101340.28;5046470;28;20024;-73
2021/11/08 03:50:09;;;;;;;3.83;0.90;;;;;;;7.51;100.00;101343.75;5044912;28;20035;-73
2021/11/08 03:52:37;;;;;;;3.80;0.95;;;;;;;7.47;100.00;101344.41;5056167;28;20036;-73
2021/11/08 03:55:05;;;;;;;2.47;1.23;;;;;;;7.50;100.00;101351.97;5045437;28;20024;-73
2021/11/08 03:57:30;;;;;;;2.33;1.05;;;;;;;7.46;100.00;101354.25;5045584;28;20033;-73
2021/11/08 03:59:56;;;;;;;2.17;1.00;;;;;;;7.52;100.00;101356.06;5050802;28;20578;-73
2021/11/08 04:02:22;;;;;;;3.67;0.95;;;;;;;7.43;100.00;101357.34;5060985;28;20479;-73
2021/11/08 04:04:48;;;;;;;3.97;0.90;;;;;;;7.52;100.00;101356.06;5049336;28;20082;-73
2021/11/08 04:07:14;;;;;;;3.50;1.17;;;;;;;7.56;100.00;101364.47;5044995;28;20032;-73
2021/11/08 04:09:41;;;;;;;1.38;1.00;;;;;;;7.52;100.00;101376.56;5048058;28;20029;-72
2021/11/08 04:12:08;;;;;;;3.22;0.98;;;;;;;7.56;100.00;101372.47;5052305;28;20025;-73
2021/11/08 04:14:37;;;;;;;8.88;1.30;;;;;;;7.56;100.00;101370.63;5048171;28;20024;-73
2021/11/08 04:17:04;;;;;;;4.05;1.02;;;;;;;7.60;100.00;101376.34;5047585;28;20479;-73
2021/11/08 04:19:31;;;;;;;5.43;1.23;;;;;;;7.71;100.00;101383.66;5044517;28;20801;-73
2021/11/08 04:22:00;;;;;;;5.25;1.02;;;;;;;7.71;100.00;101385.50;5047208;28;20552;-73
2021/11/08 04:24:26;;;;;;;2.40;0.77;;;;;;;7.73;100.00;101384.28;5048197;28;20060;-73
2021/11/08 04:26:52;;;;;;;5.03;1.15;;;;;;;7.81;100.00;101385.88;5053913;28;20025;-73
2021/11/08 04:29:18;;;;;;;2.00;0.73;;;;;;;7.77;100.00;101395.34;5047205;28;20076;-73
2021/11/08 04:31:43;;;;;;;1.48;0.68;;;;;;;7.80;100.00;101408.25;5047608;28;20048;-73
2021/11/08 04:34:26;;;;;;;1.45;0.95;;;;;;;7.85;100.00;101408.41;5045598;28;20475;-73
2021/11/08 04:55:13;;;;;;;3.45;0.98;;;;;;;7.51;100.00;101418.41;5043074;28;20040;-73
2021/11/08 04:57:56;;;;;;;3.33;1.10;;;;;;;7.48;100.00;101418.84;5045470;28;20479;-73
2021/11/08 05:23:02;;;;;;;3.65;1.25;;;;;;;7.46;100.00;101444.09;5046099;28;20035;-74
2021/11/08 05:28:04;;;;;;;3.05;1.17;;;;;;;7.50;100.00;101467.44;5044092;28;20025;-73
2021/11/08 05:30:30;;;;;;;8.00;1.60;;;;;;;7.51;100.00;101461.06;5042747;28;20469;-73
2021/11/08 05:32:56;;;;;;;3.30;1.20;;;;;;;7.41;100.00;101466.06;5059507;28;20108;-73
2021/11/08 05:35:21;;;;;;;3.00;1.38;;;;;;;7.50;100.00;101462.09;5045537;28;20499;-73
2021/11/08 05:37:47;;;;;;;3.65;1.48;;;;;;;7.50;100.00;101467.44;5039978;28;20037;-73
2021/11/08 05:40:21;;;;;;;4.28;1.73;;;;;;;7.57;100.00;101468.25;5047123;28;20055;-73
2021/11/08 05:42:48;;;;;;;2.50;1.38;;;;;;;7.54;100.00;101476.69;5041724;28;20040;-72
2021/11/08 05:45:15;;;;;;;1.95;1.67;;;;;;;7.53;100.00;101479.53;5054071;28;20028;-72
2021/11/08 05:47:41;;;;;;;4.47;1.40;;;;;;;7.51;100.00;101485.06;5041023;28;20036;-72
2021/11/08 05:50:09;;;;;;;4.70;1.80;;;;;;;7.52;100.00;101484.03;5042327;28;20086;-72
2021/11/08 05:52:35;;;;;;;4.45;1.58;;;;;;;7.56;100.00;101487.97;5038970;28;20040;-72
2021/11/08 05:55:00;;;;;;;4.03;1.50;;;;;;;7.56;100.00;101492.47;5044626;28;20033;-72
2021/11/08 06:49:30;;;;;;;7.13;2.90;;;;;;;8.00;100.00;101603.75;5051247;28;20043;-73
2021/11/08 06:51:56;;;;;;;3.58;2.63;;;;;;;8.08;100.00;101605.38;5048740;28;20031;-72
2021/11/08 06:54:24;;;;;;;7.40;2.90;;;;;;;8.13;100.00;101611.72;5050519;28;20017;-73
2021/11/08 06:56:54;;;;;;;5.85;2.50;;;;;;;8.19;100.00;101620.72;5050825;28;20043;-73
2021/11/08 06:59:23;;;;;;;6.63;2.25;;;;;;;8.23;100.00;101621.13;5049305;28;20025;-73
2021/11/08 07:01:49;;;;;;;7.00;2.28;;;;;;;8.22;100.00;101624.81;5049234;28;20102;-73
2021/11/08 07:04:18;;;;;;;6.60;2.10;;;;;;;8.17;100.00;101636.13;5046336;28;20508;-73
2021/11/08 07:06:46;;;;;;;3.75;1.80;;;;;;;8.24;100.00;101626.25;5046655;28;20112;-73
2021/11/08 07:09:13;;;;;;;4.40;1.88;;;;;;;8.18;100.00;101638.59;5053824;28;20021;-73
2021/11/08 07:11:39;;;;;;;5.05;1.70;;;;;;;8.25;100.00;101643.09;5049017;28;20513;-73
2021/11/08 07:14:09;;;;;;;7.18;2.83;;;;;;;8.28;100.00;101651.53;5037472;28;20123;-73
2021/11/08 07:16:36;;;;;;;7.25;2.53;;;;;;;8.34;100.00;101655.22;5045332;28;20159;-73
2021/11/08 07:19:02;;;;;;;5.65;2.45;;;;;;;8.27;100.00;101649.88;5047242;28;20077;-74
2021/11/08 07:21:27;;;;;;;5.63;3.17;;;;;;;8.14;100.00;101648.06;5045741;28;20037;-74
2021/11/08 07:23:53;;;;;;;8.90;2.88;;;;;;;8.25;100.00;101657.25;5050457;28;20635;-73
2021/11/08 07:26:19;;;;;;;6.03;2.20;;;;;;;8.29;100.00;101666.50;5048181;28;20036;-73
2021/11/08 07:28:44;;;;;;;6.45;2.00;;;;;;;8.27;100.00;101665.09;5051163;28;20499;-73
2021/11/08 07:31:10;;;;;;;8.93;2.00;;;;;;;8.16;100.00;101658.53;5045179;28;20572;-73
2021/11/08 07:33:36;;;;;;;8.50;2.20;;;;;;;8.08;100.00;101664.94;5049443;28;20512;-73
2021/11/08 07:36:02;;;;;;;5.80;2.00;;;;;;;7.97;100.00;101654.06;5043293;28;20046;-73
2021/11/08 07:38:28;;;;;;;6.93;2.10;;;;;;;7.93;100.00;101659.00;5048026;28;20089;-73
2021/11/08 07:40:53;;;;;;;2.67;2.05;;;;;;;8.01;100.00;101658.75;5050754;28;20112;-73
2021/11/08 07:43:20;;;;;;;5.47;2.15;;;;;;;8.12;100.00;101657.31;5059217;28;20025;-73
2021/11/08 07:45:45;;;;;;;6.57;1.63;;;;;;;8.17;100.00;101655.66;5051491;28;20391;-74
2021/11/08 07:48:11;;;;;;;5.90;1.45;;;;;;;8.16;100.00;101659.34;5045726;28;20021;-73
2021/11/08 07:50:39;;;;;;;1.60;1.10;;;;;;;8.29;100.00;101669.19;5049907;28;20383;-73
2021/11/08 07:53:05;;;;;;;1.63;0.98;;;;;;;8.34;100.00;101676.59;5043752;28;20017;-73
2021/11/08 07:55:30;;;;;;;10.15;1.23;;;;;;;8.42;100.00;101674.47;5045566;28;20027;-73
2021/11/08 07:57:56;;;;;;;5.10;1.17;;;;;;;8.52;100.00;101682.06;5049006;28;20403;-73
2021/11/08 08:00:21;;;;;;;5.78;1.35;;;;;;;8.53;100.00;101685.56;5049404;28;20024;-74
2021/11/08 08:02:49;;;;;;;3.78;1.25;;;;;;;8.56;100.00;101696.63;5053553;28;20032;-73
2021/11/08 08:05:15;;;;;;;3.15;1.00;;;;;;;8.60;100.00;101689.81;5058069;28;20379;-73
2021/11/08 08:07:40;;;;;;;2.90;1.08;;;;;;;8.68;100.00;101699.47;5043854;28;20024;-73
2021/11/08 08:10:06;;;;;;;3.53;1.08;;;;;;;8.65;100.00;101700.72;5050953;28;20398;-73
2021/11/08 08:12:31;;;;;;;3.67;1.00;;;;;;;8.73;100.00;101702.31;5047966;28;20029;-73
2021/11/08 08:14:57;;;;;;;1.92;1.00;;;;;;;8.84;100.00;101703.50;5042771;28;20131;-74
2021/11/08 08:17:22;;;;;;;4.55;1.20;;;;;;;9.03;100.00;101707.94;5045620;28;20043;-73
2021/11/08 08:19:48;;;;;;;3.13;0.90;;;;;;;8.95;100.00;101711.66;5049253;28;20025;-73
2021/11/08 08:22:14;;;;;;;3.42;1.10;;;;;;;8.96;100.00;101712.47;5048366;28;20471;-73
2021/11/08 08:24:39;;;;;;;3.35;0.90;;;;;;;8.96;100.00;101712.47;5042118;28;20502;-73
2021/11/08 08:27:05;;;;;;;2.53;0.90;;;;;;;9.05;100.00;101713.88;5054455;28;20029;-73
2021/11/08 08:29:34;;;;;;;3.40;0.90;;;;;;;9.05;100.00;101708.53;5047080;28;20510;-73
2021/11/08 08:32:00;;;;;;;4.40;1.23;;;;;;;9.21;100.00;101709.88;5034514;28;20036;-73
2021/11/08 08:34:26;;;;;;;3.08;0.95;;;;;;;9.27;100.00;101707.16;5053916;28;20032;-73
2021/11/08 08:36:53;;;;;;;2.72;0.90;;;;;;;9.25;100.00;101709.22;5045957;28;20039;-73
2021/11/08 08:39:20;;;;;;;3.80;0.90;;;;;;;9.22;100.00;101708.84;5042055;28;20282;-73
2021/11/08 08:41:47;;;;;;;2.20;1.38;;;;;;;9.26;100.00;101715.41;5049726;28;20040;-73
2021/11/08 08:44:13;;;;;;;2.65;0.90;;;;;;;9.41;100.00;101712.41;5045549;28;20025;-73
2021/11/08 08:46:44;;;;;;;3.35;0.90;;;;;;;9.34;99.11;101715.97;5043981;28;20017;-73
2021/11/08 08:49:14;;;;;;;3.03;1.15;;;;;;;9.53;100.00;101726.75;5049478;28;20028;-73
2021/11/08 08:51:42;;;;;;;3.92;1.25;;;;;;;9.61;99.98;101731.81;5047383;28;20032;-73
2021/11/08 08:54:08;;;;;;;2.67;0.95;;;;;;;9.69;99.52;101735.06;5049190;28;20040;-73
2021/11/08 08:56:33;;;;;;;3.40;1.33;;;;;;;9.61;97.95;101737.16;5038815;28;20491;-73
2021/11/08 08:58:59;;;;;;;2.22;0.98;;;;;;;9.59;97.42;101745.41;5046038;28;20229;-73
2021/11/08 09:01:25;;;;;;;1.83;1.17;;;;;;;9.69;96.88;101745.75;5045419;28;20110;-72
2021/11/08 09:03:52;;;;;;;2.08;1.10;;;;;;;9.74;96.51;101745.09;5043797;28;20120;-73
2021/11/08 09:06:17;;;;;;;3.92;1.10;;;;;;;9.88;96.91;101752.00;5048374;28;20033;-73
2021/11/08 09:08:43;;;;;;;4.60;1.27;;;;;;;9.95;96.39;101752.75;5048280;28;20074;-73
2021/11/08 09:11:10;;;;;;;3.83;1.05;;;;;;;9.92;95.52;101753.19;5044589;28;20384;-73
2021/11/08 09:13:37;;;;;;;3.92;1.35;;;;;;;9.90;94.78;101754.44;5048685;28;20498;-73
2021/11/08 09:16:10;;;;;;;4.13;1.25;;;;;;;9.75;94.81;101772.69;5046195;28;20099;-73
2021/11/08 09:18:36;;;;;;;4.32;1.55;;;;;;;9.79;94.97;101774.69;5047267;28;20032;-73
2021/11/08 09:21:01;;;;;;;4.43;1.27;;;;;;;9.74;95.73;101773.72;5045571;28;20031;-73
2021/11/08 09:23:27;;;;;;;7.85;1.70;;;;;;;9.69;96.32;101771.69;5045257;28;20105;-73
2021/11/08 09:25:52;;;;;;;3.63;1.48;;;;;;;9.66;95.89;101775.63;5044268;28;20107;-74
2021/11/08 09:28:18;;;;;;;3.85;1.33;;;;;;;9.73;95.77;101775.59;5049687;28;20032;-73
2021/11/08 09:30:44;;;;;;;3.10;1.10;;;;;;;9.75;95.40;101783.41;5043483;28;20017;-73
2021/11/08 09:33:10;;;;;;;3.33;1.00;;;;;;;9.74;93.94;101781.75;5047999;28;20020;-73
2021/11/08 09:35:38;;;;;;;7.18;1.10;;;;;;;9.73;94.44;101788.97;5045952;28;20021;-73
2021/11/08 09:38:09;;;;;;;4.00;1.23;;;;;;;9.67;93.96;101789.81;5048957;28;20033;-73
2021/11/08 09:40:36;;;;;;;4.30;1.00;;;;;;;9.86;94.50;101796.88;5043794;28;20503;-73
2021/11/08 09:43:03;;;;;;;4.00;1.05;;;;;;;9.92;94.02;101800.56;5041293;28;20048;-73
2021/11/08 09:45:28;;;;;;;2.70;0.90;;;;;;;10.10;94.14;101808.66;5064016;28;20391;-73
2021/11/08 09:47:54;;;;;;;4.80;0.98;;;;;;;10.11;94.44;101793.41;5040159;28;20028;-73
2021/11/08 09:50:26;;;;;;;2.80;1.00;;;;;;;10.14;94.61;101801.00;5045897;28;20024;-73
2021/11/08 09:52:52;;;;;;;2.17;0.80;;;;;;;9.90;94.98;101798.09;5048405;28;20024;-73
2021/11/08 09:55:22;;;;;;;1.17;0.80;;;;;;;10.06;95.35;101798.59;5045067;28;20026;-73
2021/11/08 09:57:48;;;;;;;2.97;1.02;;;;;;;10.18;95.68;101792.28;5048571;28;20020;-73
2021/11/08 10:00:24;;;;;;;2.22;1.00;;;;;;;10.08;94.96;101804.56;5047366;28;20063;-73
2021/11/08 10:03:01;;;;;;;3.83;0.77;;;;;;;9.82;96.04;101805.56;5050228;28;20098;-72
2021/11/08 10:05:30;;;;;;;3.28;1.00;;;;;;;9.56;97.43;101814.59;5049437;28;20052;-73
2021/11/08 10:07:57;;;;;;;5.25;1.02;;;;;;;9.49;98.80;101808.44;5046982;28;20021;-73
2021/11/08 10:10:23;;;;;;;3.78;1.02;;;;;;;9.33;100.00;101815.13;5045714;28;20043;-73
2021/11/08 10:12:54;;;;;;;4.20;1.20;;;;;;;9.18;100.00;101817.28;5042379;28;20022;-74
2021/11/08 10:15:20;;;;;;;6.60;1.20;;;;;;;9.16;100.00;101814.81;5046621;28;20090;-73
2021/11/08 10:17:46;;;;;;;3.67;1.20;;;;;;;9.08;100.00;101820.38;5058495;28;20021;-73
2021/11/08 10:20:27;;;;;;;4.88;1.42;;;;;;;9.24;100.00;101811.88;5043636;28;20035;-73
2021/11/08 10:22:54;;;;;;;4.15;1.52;;;;;;;9.29;100.00;101814.72;5049362;28;20029;-73
2021/11/08 10:25:19;;;;;;;3.05;1.08;;;;;;;9.16;100.00;101822.84;5047538;28;20056;-73
2021/11/08 10:27:45;;;;;;;2.00;1.08;;;;;;;9.26;100.00;101817.84;5045966;28;20056;-73
2021/11/08 10:30:24;;;;;;;7.55;1.60;;;;;;;9.43;100.00;101822.69;5040783;28;20025;-73
2021/11/08 10:33:06;;;;;;;3.95;1.60;;;;;;;9.57;100.00;101821.59;5043983;28;20102;-73
2021/11/08 10:35:41;;;;;;;6.88;1.88;;;;;;;9.61;100.00;101828.16;5040717;28;20072;-73
2021/11/08 10:38:09;;;;;;;3.53;1.13;;;;;;;9.50;100.00;101836.84;5043166;28;20032;-73
2021/11/08 10:40:43;;;;;;;1.92;1.23;;;;;;;9.45;100.00;101847.38;5044510;28;20032;-73
2021/11/08 10:43:10;;;;;;;2.45;0.95;;;;;;;9.51;100.00;101844.66;5044539;28;20484;-73
2021/11/08 10:45:56;;;;;;;2.35;0.75;;;;;;;9.80;100.00;101837.09;5044415;28;20025;-74
2021/11/08 10:48:34;;;;;;;2.00;1.20;;;;;;;9.95;100.00;101832.25;5044358;28;20120;-73
2021/11/08 10:51:03;;;;;;;1.90;1.30;;;;;;;9.85;100.00;101839.91;5046449;28;20021;-73
2021/11/08 10:53:30;;;;;;;4.15;1.60;;;;;;;9.81;100.00;101844.91;5059458;28;20033;-73
2021/11/08 10:56:06;;;;;;;4.75;1.88;;;;;;;9.82;100.00;101837.69;5053026;28;20512;-73
2021/11/08 10:58:32;;;;;;;6.25;2.60;;;;;;;9.94;100.00;101836.78;5049363;28;20071;-73
2021/11/08 11:01:01;;;;;;;4.18;2.08;;;;;;;9.85;100.00;101834.56;5049427;28;20029;-74
2021/11/08 11:03:27;;;;;;;2.58;1.20;;;;;;;9.63;100.00;101848.28;5056710;28;20060;-73
2021/11/08 11:06:03;;;;;;;4.65;1.98;;;;;;;9.49;100.00;101841.38;5049750;28;20495;-73
2021/11/08 11:08:33;;;;;;;5.88;1.70;;;;;;;9.60;100.00;101842.56;5049276;28;20051;-73
2021/11/08 11:11:02;;;;;;;3.83;2.30;;;;;;;9.69;100.00;101839.44;5052130;28;20033;-73
2021/11/08 11:13:30;;;;;;;4.00;1.63;;;;;;;9.77;100.00;101843.69;5059821;28;20036;-73
2021/11/08 11:16:01;;;;;;;6.32;1.80;;;;;;;9.78;100.00;101834.63;5045699;28;20025;-74
2021/11/08 11:18:35;;;;;;;5.70;1.88;;;;;;;9.62;100.00;101843.16;5049685;28;20031;-73
2021/11/08 11:21:18;;;;;;;5.95;1.80;;;;;;;9.67;100.00;101838.78;5049034;28;20213;-73
2021/11/08 11:23:50;;;;;;;5.07;1.48;;;;;;;9.83;100.00;101832.09;5046678;28;20048;-73
2021/11/08 11:26:18;;;;;;;5.50;1.60;;;;;;;9.93;99.62;101843.16;5031515;28;20395;-73
2021/11/08 11:28:46;;;;;;;1.70;1.40;;;;;;;9.91;98.41;101850.59;5049579;28;20028;-73
2021/11/08 11:31:21;;;;;;;3.90;1.67;;;;;;;9.84;96.91;101854.34;5047365;28;20086;-73
2021/11/08 11:33:49;;;;;;;4.53;1.52;;;;;;;9.87;97.95;101848.56;5047140;28;20027;-74
2021/11/08 11:36:17;;;;;;;4.63;1.67;;;;;;;9.85;97.90;101859.47;5047663;28;20109;-73
2021/11/08 11:38:49;;;;;;;4.28;2.22;;;;;;;9.84;96.01;101844.47;5047703;28;20017;-73
2021/11/08 11:41:17;;;;;;;3.00;1.63;;;;;;;9.88;96.19;101850.22;5038970;28;20026;-73
2021/11/08 11:44:01;;;;;;;4.82;2.30;;;;;;;9.98;93.74;101837.97;5034008;28;20546;-73
2021/11/08 11:46:33;;;;;;;3.75;2.15;;;;;;;9.96;92.75;101848.09;5043813;28;20033;-73
2021/11/08 11:49:02;;;;;;;4.53;1.60;;;;;;;9.95;92.90;101851.81;5042133;28;20024;-73
2021/11/08 11:51:33;;;;;;;2.40;1.45;;;;;;;9.91;93.56;101844.44;5055977;28;20087;-73
2021/11/08 11:54:00;;;;;;;3.55;1.50;;;;;;;9.92;92.93;101851.44;5043289;28;20021;-73
2021/11/08 11:56:28;;;;;;;2.78;1.10;;;;;;;9.87;92.98;101852.06;5044545;28;20095;-73
2021/11/08 11:58:54;;;;;;;3.63;1.55;;;;;;;9.98;93.90;101851.38;5041554;28;20479;-73
2021/11/08 12:01:24;;;;;;;1.17;1.08;;;;;;;9.91;93.28;101855.97;5035745;28;20024;-73
2021/11/08 12:03:51;;;;;;;1.35;0.85;;;;;;;9.92;93.68;101857.59;5047237;28;20102;-73
2021/11/08 12:06:28;;;;;;;4.30;1.17;;;;;;;9.91;93.14;101865.84;5045528;28;20024;-73
2021/11/08 12:09:00;;;;;;;3.08;1.17;;;;;;;9.78;92.68;101871.28;5040576;28;20088;-73
2021/11/08 12:11:37;;;;;;;1.55;0.88;;;;;;;9.77;92.10;101873.13;5046232;28;20510;-73
2021/11/08 12:14:14;;;;;;;1.58;0.90;;;;;;;9.83;92.68;101869.59;5045016;28;20048;-73
2021/11/08 12:17:17;;;;;;;3.13;1.08;;;;;;;9.90;92.76;101865.03;5041980;28;20752;-73
2021/11/08 12:19:45;;;;;;;1.73;0.80;;;;;;;9.86;93.01;101874.50;5028989;28;20033;-73
2021/11/08 12:22:22;;;;;;;0.98;0.75;;;;;;;9.85;93.49;101864.00;5042298;28;20033;-73
2021/11/08 12:25:17;;;;;;;1.85;0.80;;;;;;;9.82;93.62;101873.31;5040276;28;20157;-73
2021/11/08 12:28:12;;;;;;;3.58;0.90;;;;;;;9.52;95.71;101882.97;5037886;28;20037;-73
2021/11/08 12:30:45;;;;;;;1.58;0.90;;;;;;;9.33;98.94;101873.97;5009685;28;20060;-73
2021/11/08 12:33:30;;;;;;;1.05;0.90;;;;;;;9.15;100.00;101874.63;5040092;28;20044;-73
2021/11/08 12:35:59;;;;;;;4.38;1.13;;;;;;;9.11;100.00;101875.28;5046883;28;20079;-73
2021/11/08 12:38:25;;;;;;;3.50;1.15;;;;;;;9.03;100.00;101869.16;5043586;28;20123;-73
2021/11/08 12:41:04;;;;;;;1.95;1.10;;;;;;;9.03;100.00;101866.47;5042360;28;20685;-73
2021/11/08 12:43:31;;;;;;;1.75;1.30;;;;;;;9.04;100.00;101864.63;5045324;28;20039;-73
2021/11/08 12:46:14;;;;;;;2.30;1.20;;;;;;;8.94;100.00;101878.41;5044669;28;20033;-73
2021/11/08 12:48:40;;;;;;;3.15;1.42;;;;;;;8.87;100.00;101882.13;5043390;28;20056;-72
2021/11/08 12:51:07;;;;;;;3.17;1.25;;;;;;;8.79;100.00;101889.31;5049809;28;20032;-73
2021/11/08 12:54:09;;;;;;;2.08;1.45;;;;;;;8.85;100.00;101882.34;5046388;28;20032;-73
2021/11/08 12:56:44;;;;;;;2.70;1.30;;;;;;;8.85;100.00;101898.38;5034117;28;20115;-73
2021/11/08 12:59:20;;;;;;;3.95;1.35;;;;;;;8.76;100.00;101895.09;5038218;28;20157;-73
2021/11/08 13:02:10;;;;;;;4.65;1.60;;;;;;;8.66;100.00;101893.91;5030861;28;20113;-72
2021/11/08 13:04:50;;;;;;;3.35;1.45;;;;;;;8.78;100.00;101898.38;5039507;28;20102;-73
2021/11/08 13:07:18;;;;;;;4.47;1.85;;;;;;;8.97;100.00;101886.00;5040076;28;20128;-73
2021/11/08 13:09:54;;;;;;;4.72;1.70;;;;;;;9.04;100.00;101886.00;5047805;28;20766;-73